Terminal Aerodrome Forecast
Issued by NWS Blacksburg, VA

Current Version | Previous Version | Graphics & Text | Print | Product List | Glossary On
Versions: 1 2 3 4 5 6 7 8 9 10 11 12 13 14 15 16 17 18 19 20 21 22
872
FTUS41 KRNK 232320
TAFBLF
TAF
KBLF 232320Z 2400/2424 15007KT P6SM SKC
     FM240700 17007KT P6SM BKN090
     FM241900 22007KT P6SM SCT060=

USA.gov is the U.S. government's official web portal to all federal, state and local government web resources and services.